Nashville, Tennessee
Current Conditions -  °F | °C
As of 10:53 AM on Monday 22 Dec 2014 (Local Time) from KBNA Reporting Station
Overcast Overcast  
Wind Chill: 53°   Ceiling: 1700
Heat Index: 53°   Visibility: 10mi
Dew Point: 45°   Wind: 9mph
Humidity: 74%   Direction: 170°S
Pressure: 29.88"   Gusts: NA
Location:  36.11°N, 86.68°W
Report Text: KBNA 221653Z 17008KT 10SM OVC017 12/07 A2988 RMK AO2 SLP120 T01170072
Loading
Personal Weather Stations






























Interactive Weather Map New forecast layout! Learn more

10-Day Weather Forecast

Advertisements
Track Severe Weather on mobile